Time;durP1;ratioP1;P1;durP2;ratioP2;P2;SDS_P1;SDS_P2;PMS_P1;PMS_P2;Temp;Humidity;BMP_temperature;BMP_pressure;BME280_temperature;BME280_humidity;BME280_pressure;Samples;Min_cycle;Max_cycle;Signal;HPM_P1;HPM_P2
2021/07/05 00:02:29;;;;;;;1.92;1.40;;;15.40;99.90;;;;;;6223720;28;20506;-78
2021/07/05 00:05:32;;;;;;;1.55;1.45;;;15.50;99.90;;;;;;6224439;28;20077;-78
2021/07/05 00:08:35;;;;;;;3.00;2.13;;;15.40;99.90;;;;;;6223369;28;20077;-78
2021/07/05 00:11:37;;;;;;;3.92;2.35;;;15.30;99.90;;;;;;6223935;28;20120;-77
2021/07/05 00:14:39;;;;;;;5.18;2.05;;;15.30;99.90;;;;;;6223026;28;20042;-77
2021/07/05 00:17:41;;;;;;;1.60;1.50;;;15.20;99.90;;;;;;6223833;28;20137;-77
2021/07/05 00:20:46;;;;;;;4.40;1.90;;;15.20;99.90;;;;;;6220343;28;20132;-77
2021/07/05 00:23:48;;;;;;;5.70;2.13;;;15.20;99.90;;;;;;6223526;28;20142;-78
2021/07/05 00:26:50;;;;;;;3.33;2.03;;;15.20;99.90;;;;;;6222972;28;20515;-78
2021/07/05 00:29:52;;;;;;;5.60;2.00;;;15.20;99.90;;;;;;6223490;28;20078;-77
2021/07/05 00:32:54;;;;;;;2.30;2.10;;;15.20;99.90;;;;;;6224042;28;20135;-77
2021/07/05 00:35:57;;;;;;;2.80;2.30;;;15.20;99.90;;;;;;6222841;28;20045;-78
2021/07/05 00:38:59;;;;;;;4.53;2.05;;;15.30;99.90;;;;;;6223269;28;20073;-78
2021/07/05 00:42:01;;;;;;;2.58;2.35;;;15.40;99.90;;;;;;6219248;28;20042;-78
2021/07/05 00:45:03;;;;;;;6.07;2.10;;;15.40;99.90;;;;;;6223589;28;20042;-78
2021/07/05 00:48:06;;;;;;;4.22;2.13;;;15.40;99.90;;;;;;6222778;28;20077;-78
2021/07/05 00:51:09;;;;;;;4.65;2.10;;;15.30;99.90;;;;;;6222939;28;20104;-78
2021/07/05 00:54:11;;;;;;;6.93;2.28;;;15.30;99.90;;;;;;6223591;28;20104;-78
2021/07/05 00:57:21;;;;;;;4.88;2.22;;;15.30;99.90;;;;;;6222634;28;20124;-78
2021/07/05 01:00:24;;;;;;;6.35;1.98;;;15.20;99.90;;;;;;6223663;28;20045;-77
2021/07/05 01:03:26;;;;;;;3.20;1.95;;;15.20;99.90;;;;;;6222775;28;20132;-78
2021/07/05 01:06:29;;;;;;;3.85;2.08;;;15.20;99.90;;;;;;6222662;28;20090;-77
2021/07/05 01:09:31;;;;;;;4.53;2.53;;;15.10;99.90;;;;;;6223138;28;20515;-77
2021/07/05 01:12:33;;;;;;;4.10;1.98;;;15.10;99.90;;;;;;6223061;28;20046;-79
2021/07/05 01:15:35;;;;;;;5.05;2.00;;;15.00;99.90;;;;;;6224560;28;20120;-78
2021/07/05 01:18:37;;;;;;;7.50;2.53;;;15.00;99.90;;;;;;6222351;28;20196;-78
2021/07/05 01:21:40;;;;;;;5.45;2.20;;;15.10;99.90;;;;;;6222939;28;20081;-78
2021/07/05 01:24:43;;;;;;;2.70;2.35;;;15.10;99.90;;;;;;6221806;28;20124;-78
2021/07/05 01:27:46;;;;;;;2.92;2.47;;;15.20;99.90;;;;;;6220781;28;20050;-78
2021/07/05 01:30:48;;;;;;;4.93;2.50;;;15.20;99.90;;;;;;6222258;28;20041;-78
2021/07/05 01:33:51;;;;;;;4.88;2.20;;;15.20;99.90;;;;;;6223105;28;20127;-78
2021/07/05 01:36:54;;;;;;;2.30;2.00;;;15.20;99.90;;;;;;6222114;28;20113;-78
2021/07/05 01:39:56;;;;;;;4.55;2.20;;;15.10;99.90;;;;;;6221493;28;20757;-77
2021/07/05 01:42:59;;;;;;;5.47;3.22;;;15.00;99.90;;;;;;6210560;28;20057;-78
2021/07/05 01:46:02;;;;;;;3.20;2.38;;;15.00;99.90;;;;;;6199072;28;20049;-78
2021/07/05 01:49:04;;;;;;;4.88;2.40;;;14.90;99.90;;;;;;6197669;28;20167;-77
2021/07/05 01:52:07;;;;;;;3.42;2.67;;;14.90;99.90;;;;;;6197115;28;20054;-78
2021/07/05 01:55:10;;;;;;;6.25;2.10;;;14.80;99.90;;;;;;6197384;28;20125;-77
2021/07/05 01:58:12;;;;;;;5.65;2.15;;;14.80;99.90;;;;;;6196613;28;20682;-78
2021/07/05 02:01:14;;;;;;;2.25;2.03;;;14.80;99.90;;;;;;6197458;28;20077;-77
2021/07/05 02:04:16;;;;;;;5.30;2.58;;;14.70;99.90;;;;;;6196956;28;20070;-77
2021/07/05 02:07:20;;;;;;;3.00;2.65;;;14.80;99.90;;;;;;6196570;28;20080;-77
2021/07/05 02:10:25;;;;;;;4.78;2.33;;;14.80;99.90;;;;;;6197377;28;20125;-78
2021/07/05 02:13:29;;;;;;;2.85;2.25;;;14.80;99.90;;;;;;6197396;28;20089;-78
2021/07/05 02:16:31;;;;;;;11.85;4.00;;;14.80;99.90;;;;;;6197716;28;20073;-78
2021/07/05 02:19:33;;;;;;;7.30;2.78;;;14.80;99.90;;;;;;6197604;28;20360;-77
2021/07/05 02:22:36;;;;;;;2.65;2.10;;;14.70;99.90;;;;;;6197149;28;20070;-78
2021/07/05 02:25:38;;;;;;;6.28;3.08;;;14.70;99.90;;;;;;6197322;28;20046;-78
2021/07/05 02:28:41;;;;;;;7.07;2.38;;;14.70;99.90;;;;;;6196745;28;20120;-78
2021/07/05 02:31:43;;;;;;;6.28;2.42;;;14.80;99.90;;;;;;6196865;28;20052;-79
2021/07/05 02:34:45;;;;;;;9.02;3.13;;;14.90;99.90;;;;;;6197007;28;20046;-78
2021/07/05 02:37:49;;;;;;;3.58;2.90;;;15.00;99.90;;;;;;6197374;28;20566;-78
2021/07/05 02:40:53;;;;;;;3.67;3.38;;;15.10;99.90;;;;;;6202298;28;20137;-78
2021/07/05 02:43:55;;;;;;;3.92;3.10;;;15.20;99.90;;;;;;6205648;28;20151;-78
2021/07/05 02:46:57;;;;;;;9.00;3.95;;;15.40;99.90;;;;;;6203934;28;20093;-78
2021/07/05 02:49:59;;;;;;;4.15;3.00;;;15.50;99.90;;;;;;6202112;28;20062;-78
2021/07/05 02:53:03;;;;;;;3.70;2.65;;;15.50;99.90;;;;;;6201977;28;20054;-77
2021/07/05 02:56:06;;;;;;;7.78;3.45;;;15.60;99.90;;;;;;6200931;28;20125;-77
2021/07/05 02:59:08;;;;;;;5.65;1.77;;;15.60;99.90;;;;;;6201154;28;20624;-78
2021/07/05 03:02:09;;;;;;;4.05;2.55;;;15.70;99.90;;;;;;6201274;28;20051;-79
2021/07/05 03:05:13;;;;;;;4.82;2.50;;;15.70;99.90;;;;;;6201499;28;20519;-78
2021/07/05 03:08:16;;;;;;;3.20;2.85;;;15.70;99.90;;;;;;6200778;28;20116;-78
2021/07/05 03:11:18;;;;;;;5.85;2.95;;;15.80;99.90;;;;;;6201342;28;20100;-77
2021/07/05 03:14:20;;;;;;;3.45;2.53;;;15.90;99.90;;;;;;6203538;28;20085;-80
2021/07/05 03:17:22;;;;;;;3.78;2.58;;;15.90;99.90;;;;;;6205060;28;20130;-78
2021/07/05 03:20:26;;;;;;;3.33;2.60;;;15.90;99.90;;;;;;6201420;28;20106;-77
2021/07/05 03:23:29;;;;;;;7.55;2.42;;;16.00;99.90;;;;;;6206077;28;20112;-78
2021/07/05 03:26:31;;;;;;;2.47;2.25;;;16.10;99.90;;;;;;6201015;28;20066;-78
2021/07/05 03:29:33;;;;;;;4.22;2.38;;;16.10;99.90;;;;;;6204004;28;20129;-79
2021/07/05 03:32:35;;;;;;;6.63;2.85;;;16.10;99.90;;;;;;6202146;28;20131;-78
2021/07/05 03:35:38;;;;;;;4.85;2.25;;;16.20;99.90;;;;;;6201052;28;20133;-78
2021/07/05 03:38:42;;;;;;;8.18;2.70;;;16.20;99.90;;;;;;6200281;28;20136;-77
2021/07/05 03:41:43;;;;;;;3.50;2.95;;;16.10;99.90;;;;;;6201225;28;20137;-77
2021/07/05 03:44:45;;;;;;;2.65;2.45;;;16.10;99.90;;;;;;6210075;28;20447;-79
2021/07/05 03:47:48;;;;;;;11.75;3.85;;;16.30;99.90;;;;;;6222169;28;20078;-78
2021/07/05 03:50:50;;;;;;;5.63;2.78;;;16.70;99.90;;;;;;6224026;28;20053;-78
2021/07/05 03:53:53;;;;;;;12.60;5.18;;;16.90;99.90;;;;;;6225345;28;20105;-77
2021/07/05 03:56:55;;;;;;;5.03;2.13;;;16.90;99.90;;;;;;6225447;28;20128;-78
2021/07/05 03:59:58;;;;;;;4.03;2.33;;;16.80;99.90;;;;;;6225231;28;20074;-78
2021/07/05 04:03:00;;;;;;;3.55;2.35;;;16.90;99.90;;;;;;6225036;28;20049;-78
2021/07/05 04:06:02;;;;;;;5.43;2.85;;;16.90;99.90;;;;;;6224284;28;20136;-78
2021/07/05 04:09:06;;;;;;;2.85;1.83;;;16.90;99.90;;;;;;6224928;28;20053;-78
2021/07/05 04:12:08;;;;;;;2.90;2.03;;;16.90;99.90;;;;;;6226054;28;20049;-77
2021/07/05 04:15:11;;;;;;;3.47;1.80;;;17.20;99.90;;;;;;6223971;28;20046;-77
2021/07/05 04:18:13;;;;;;;3.00;2.10;;;17.20;99.90;;;;;;6223191;28;20046;-77
2021/07/05 04:21:15;;;;;;;6.18;2.28;;;17.30;99.90;;;;;;6224072;28;20130;-77
2021/07/05 04:24:18;;;;;;;4.32;2.67;;;17.20;99.90;;;;;;6223185;28;20192;-77
2021/07/05 04:27:20;;;;;;;3.78;2.00;;;17.20;99.90;;;;;;6222708;28;20459;-77
2021/07/05 04:30:22;;;;;;;2.92;1.98;;;17.20;99.90;;;;;;6223190;28;20485;-77
2021/07/05 04:33:24;;;;;;;4.13;2.05;;;17.30;99.90;;;;;;6223792;28;20137;-77
2021/07/05 04:36:26;;;;;;;4.53;2.50;;;17.30;99.90;;;;;;6222500;28;20094;-77
2021/07/05 04:39:29;;;;;;;3.47;2.05;;;17.30;99.90;;;;;;6222794;28;20577;-77
2021/07/05 04:42:31;;;;;;;2.33;1.92;;;17.30;99.90;;;;;;6222978;28;20042;-77
2021/07/05 04:45:34;;;;;;;3.50;2.60;;;17.30;99.90;;;;;;6219301;28;20064;-77
2021/07/05 04:48:36;;;;;;;4.40;2.13;;;17.30;99.90;;;;;;6218937;28;20653;-77
2021/07/05 04:51:38;;;;;;;3.15;2.42;;;17.30;99.90;;;;;;6222569;28;20085;-77
2021/07/05 04:54:41;;;;;;;6.10;2.05;;;17.20;99.90;;;;;;6222505;28;20068;-77
2021/07/05 04:57:44;;;;;;;3.75;1.98;;;17.20;99.90;;;;;;6222057;28;20388;-77
2021/07/05 05:00:45;;;;;;;3.85;2.30;;;17.10;99.90;;;;;;6222285;28;20128;-76
2021/07/05 05:03:47;;;;;;;3.50;2.10;;;17.20;99.90;;;;;;6222492;28;20073;-77
2021/07/05 05:06:49;;;;;;;4.93;2.22;;;17.10;99.90;;;;;;6221682;28;20515;-77
2021/07/05 05:10:00;;;;;;;2.70;2.10;;;17.10;99.90;;;;;;6270468;23;20459;-77
2021/07/05 05:13:02;;;;;;;3.25;2.15;;;17.10;99.90;;;;;;6251684;28;20049;-77
2021/07/05 05:16:05;;;;;;;3.78;1.90;;;17.10;99.90;;;;;;6249559;28;20053;-77
2021/07/05 05:19:07;;;;;;;3.72;2.00;;;17.10;99.90;;;;;;6251044;28;20381;-77
2021/07/05 05:22:09;;;;;;;4.90;2.22;;;17.10;99.90;;;;;;6249606;28;20550;-77
2021/07/05 05:25:13;;;;;;;4.53;2.17;;;17.20;99.90;;;;;;6250481;28;20127;-77
2021/07/05 05:28:15;;;;;;;3.33;1.88;;;17.20;99.90;;;;;;6249384;28;20045;-77
2021/07/05 05:31:17;;;;;;;2.67;2.40;;;17.30;99.90;;;;;;6249760;28;20522;-77
2021/07/05 05:34:19;;;;;;;4.63;2.85;;;17.30;99.90;;;;;;6249628;28;20128;-78
2021/07/05 05:37:21;;;;;;;7.50;2.35;;;17.30;99.90;;;;;;6249688;28;20107;-78
2021/07/05 05:40:25;;;;;;;7.88;2.25;;;17.30;99.90;;;;;;6250305;28;20065;-77
2021/07/05 05:43:27;;;;;;;3.17;2.22;;;17.30;99.90;;;;;;6249754;28;20609;-77
2021/07/05 05:46:32;;;;;;;4.32;2.92;;;17.30;99.90;;;;;;6242126;28;20041;-77
2021/07/05 05:49:33;;;;;;;4.20;2.70;;;17.20;99.90;;;;;;6230157;28;20195;-78
2021/07/05 05:52:35;;;;;;;2.17;1.98;;;17.30;99.90;;;;;;6225407;28;20045;-77
2021/07/05 05:55:44;;;;;;;3.60;1.90;;;17.30;99.90;;;;;;6224333;28;20543;-77
2021/07/05 05:58:46;;;;;;;6.05;2.20;;;17.30;99.90;;;;;;6224806;28;20457;-78
2021/07/05 06:01:50;;;;;;;3.55;2.42;;;17.70;99.90;;;;;;6226055;28;20065;-78
2021/07/05 06:04:52;;;;;;;6.18;2.22;;;17.70;99.90;;;;;;6230896;28;20058;-77
2021/07/05 06:07:54;;;;;;;3.78;2.10;;;17.70;99.90;;;;;;6242107;28;20121;-77
2021/07/05 06:10:58;;;;;;;3.42;2.10;;;17.60;99.90;;;;;;6230214;28;20571;-78
2021/07/05 06:14:00;;;;;;;3.20;2.05;;;17.60;99.90;;;;;;6236931;28;20049;-78
2021/07/05 06:17:01;;;;;;;2.50;2.00;;;17.60;99.90;;;;;;6249855;28;20064;-77
2021/07/05 06:20:05;;;;;;;3.65;2.15;;;17.60;99.90;;;;;;6252637;28;20120;-78
2021/07/05 06:23:16;;;;;;;3.78;2.15;;;17.70;99.90;;;;;;6234454;28;20085;-78
2021/07/05 06:26:19;;;;;;;3.50;2.15;;;17.70;99.90;;;;;;6224792;28;20058;-77
2021/07/05 06:29:21;;;;;;;5.65;2.17;;;17.80;99.90;;;;;;6225139;28;20124;-78
2021/07/05 06:32:23;;;;;;;5.55;1.98;;;17.80;99.90;;;;;;6227018;28;20045;-77
2021/07/05 06:35:25;;;;;;;4.65;3.03;;;17.90;99.90;;;;;;6226186;28;20153;-77
2021/07/05 06:38:27;;;;;;;4.63;2.10;;;18.00;99.90;;;;;;6231127;28;20042;-78
2021/07/05 06:41:30;;;;;;;2.03;1.80;;;18.00;99.90;;;;;;6254953;28;20061;-77
2021/07/05 06:44:32;;;;;;;7.18;2.92;;;18.10;99.90;;;;;;6254333;28;20128;-78
2021/07/05 06:47:34;;;;;;;3.47;1.77;;;18.20;99.90;;;;;;6251998;28;20123;-78
2021/07/05 06:50:36;;;;;;;4.28;1.88;;;18.30;99.90;;;;;;6253726;28;20045;-78
2021/07/05 06:53:38;;;;;;;5.45;2.10;;;18.40;99.90;;;;;;6254911;28;20115;-78
2021/07/05 06:56:41;;;;;;;8.45;2.08;;;18.60;99.90;;;;;;6253812;28;20100;-78
2021/07/05 06:59:43;;;;;;;3.83;1.58;;;18.80;99.90;;;;;;6255164;28;20119;-78
2021/07/05 07:02:45;;;;;;;2.75;1.98;;;18.90;99.90;;;;;;6254609;28;20502;-78
2021/07/05 07:05:47;;;;;;;2.92;2.38;;;19.00;99.90;;;;;;6254951;28;20619;-78
2021/07/05 07:08:49;;;;;;;3.33;2.05;;;19.10;99.90;;;;;;6253789;28;20045;-78
2021/07/05 07:11:52;;;;;;;1.10;1.00;;;19.20;99.90;;;;;;6254934;28;20115;-78
2021/07/05 07:14:54;;;;;;;1.73;1.60;;;19.30;99.90;;;;;;6231940;28;20145;-78
2021/07/05 07:17:59;;;;;;;1.60;1.40;;;19.50;99.90;;;;;;6226919;28;20605;-78
2021/07/05 07:21:05;;;;;;;8.48;1.80;;;19.70;99.90;;;;;;6228216;28;20045;-78
2021/07/05 07:24:07;;;;;;;2.15;1.40;;;19.90;99.90;;;;;;6228091;28;20060;-78
2021/07/05 07:27:10;;;;;;;4.68;1.75;;;20.00;99.90;;;;;;6230438;28;20049;-78
2021/07/05 07:30:14;;;;;;;1.67;1.10;;;20.00;99.90;;;;;;6234572;28;20177;-78
2021/07/05 07:33:16;;;;;;;1.73;1.05;;;20.10;99.90;;;;;;6234835;28;20046;-79
2021/07/05 07:36:18;;;;;;;2.20;1.30;;;20.10;99.90;;;;;;6235326;28;20046;-79
2021/07/05 07:39:25;;;;;;;3.55;1.67;;;20.00;99.90;;;;;;6232114;28;20058;-77
2021/07/05 07:42:28;;;;;;;1.43;1.10;;;20.00;99.90;;;;;;6235209;28;20053;-79
2021/07/05 07:45:30;;;;;;;1.98;1.33;;;19.90;99.90;;;;;;6237588;28;20108;-79
2021/07/05 07:48:32;;;;;;;1.63;1.15;;;19.90;99.90;;;;;;6240225;28;20042;-78
2021/07/05 07:51:34;;;;;;;4.10;1.23;;;20.00;99.90;;;;;;6260163;28;20045;-78
2021/07/05 07:54:35;;;;;;;1.70;1.40;;;20.10;99.90;;;;;;6259128;28;20080;-77
2021/07/05 07:57:39;;;;;;;2.83;1.35;;;20.20;99.90;;;;;;6258736;28;20049;-77
2021/07/05 08:00:41;;;;;;;3.58;2.33;;;20.20;99.90;;;;;;6257378;28;20042;-79
2021/07/05 08:03:43;;;;;;;1.42;1.27;;;20.10;99.90;;;;;;6257192;28;20660;-77
2021/07/05 08:06:45;;;;;;;1.80;1.10;;;20.20;99.90;;;;;;6255649;28;20041;-77
2021/07/05 08:09:47;;;;;;;4.13;2.20;;;20.20;99.90;;;;;;6256290;28;20064;-76
2021/07/05 08:12:50;;;;;;;2.35;1.27;;;20.20;99.90;;;;;;6252768;28;20041;-78
2021/07/05 08:15:53;;;;;;;1.55;1.30;;;20.30;99.90;;;;;;6232396;28;20108;-78
2021/07/05 08:18:55;;;;;;;2.80;1.42;;;20.30;99.90;;;;;;6232316;28;20065;-77
2021/07/05 08:21:57;;;;;;;4.55;1.10;;;20.40;99.90;;;;;;6231852;28;20065;-78
2021/07/05 08:24:58;;;;;;;2.05;1.40;;;20.40;99.90;;;;;;6235852;28;20100;-78
2021/07/05 08:28:02;;;;;;;1.23;1.10;;;20.40;99.90;;;;;;6236867;28;20045;-78
2021/07/05 08:31:04;;;;;;;2.50;2.28;;;20.40;99.90;;;;;;6235801;28;20134;-77
2021/07/05 08:34:06;;;;;;;3.53;1.30;;;20.30;99.90;;;;;;6232683;28;20050;-77
2021/07/05 08:37:08;;;;;;;2.10;1.17;;;20.30;99.90;;;;;;6232041;28;20504;-79
2021/07/05 08:40:10;;;;;;;2.83;1.25;;;20.30;99.90;;;;;;6234732;28;20220;-77
2021/07/05 08:43:14;;;;;;;1.83;1.20;;;20.30;99.90;;;;;;6235714;28;20159;-78
2021/07/05 08:46:20;;;;;;;2.15;1.20;;;20.20;99.90;;;;;;6235320;28;20157;-78
2021/07/05 08:49:22;;;;;;;1.48;1.17;;;20.20;99.90;;;;;;6243328;28;20041;-78
2021/07/05 08:52:24;;;;;;;1.30;0.90;;;20.20;99.90;;;;;;6259456;28;20465;-77
2021/07/05 08:55:27;;;;;;;4.90;1.10;;;20.20;99.90;;;;;;6260050;28;20069;-78
2021/07/05 08:58:31;;;;;;;1.73;1.40;;;20.10;99.90;;;;;;6259816;28;20061;-78
2021/07/05 09:01:33;;;;;;;5.40;1.23;;;20.20;99.90;;;;;;6259652;28;20204;-79
2021/07/05 09:04:35;;;;;;;0.90;0.82;;;20.20;99.90;;;;;;6259885;28;20077;-78
2021/07/05 09:07:56;;;;;;;1.13;0.77;;;20.10;99.90;;;;;;6259226;28;20060;-77
2021/07/05 09:10:57;;;;;;;3.20;1.00;;;20.00;99.90;;;;;;6258633;28;20111;-77
2021/07/05 09:14:01;;;;;;;0.75;0.68;;;20.10;99.90;;;;;;6246622;28;20109;-77
2021/07/05 09:17:08;;;;;;;1.60;0.95;;;20.10;99.90;;;;;;6235146;28;20136;-78
2021/07/05 09:20:21;;;;;;;1.02;0.90;;;20.20;99.90;;;;;;6234505;28;20132;-78
2021/07/05 09:23:23;;;;;;;1.63;1.08;;;20.20;99.90;;;;;;6222009;28;20069;-78
2021/07/05 09:26:28;;;;;;;3.60;0.93;;;20.40;99.90;;;;;;6214609;28;20068;-78
2021/07/05 09:29:32;;;;;;;2.35;1.10;;;20.60;99.90;;;;;;6235258;28;20124;-78
2021/07/05 09:32:34;;;;;;;2.22;1.23;;;20.80;99.90;;;;;;6234451;28;20045;-78
2021/07/05 09:35:38;;;;;;;1.38;0.93;;;20.90;99.90;;;;;;6233920;28;20554;-76
2021/07/05 09:38:42;;;;;;;5.30;0.95;;;21.00;99.90;;;;;;6233878;28;20172;-78
2021/07/05 09:41:44;;;;;;;1.70;1.20;;;21.20;99.90;;;;;;6235071;28;20072;-78
2021/07/05 09:44:48;;;;;;;1.63;1.20;;;21.30;99.90;;;;;;6233298;28;20121;-79
2021/07/05 09:48:11;;;;;;;0.77;0.63;;;21.50;99.90;;;;;;6232795;28;20053;-78
2021/07/05 09:51:18;;;;;;;1.10;0.90;;;21.70;99.90;;;;;;6246771;28;20053;-79
2021/07/05 09:54:25;;;;;;;1.33;1.08;;;22.10;99.90;;;;;;6256689;28;20466;-78
2021/07/05 09:57:40;;;;;;;3.08;0.90;;;22.90;95.10;;;;;;6257104;28;20435;-78
2021/07/05 10:00:43;;;;;;;1.08;0.82;;;23.40;93.20;;;;;;6256918;28;20449;-78
2021/07/05 10:03:45;;;;;;;1.67;1.02;;;23.60;91.50;;;;;;6257664;28;20516;-79
2021/07/05 10:06:48;;;;;;;4.70;1.20;;;23.90;90.50;;;;;;6257521;28;20472;-79
2021/07/05 10:09:51;;;;;;;2.05;0.85;;;24.20;89.40;;;;;;6256889;28;20413;-77
2021/07/05 10:12:55;;;;;;;2.97;0.80;;;24.30;87.50;;;;;;6258161;28;20431;-78
2021/07/05 10:16:05;;;;;;;1.42;1.10;;;24.30;85.70;;;;;;6256282;28;20437;-79
2021/07/05 10:19:08;;;;;;;2.50;1.10;;;24.30;85.10;;;;;;6257472;28;21108;-79
2021/07/05 10:22:12;;;;;;;3.42;0.90;;;24.40;82.90;;;;;;6256536;28;20431;-79
2021/07/05 10:25:15;;;;;;;1.23;0.80;;;24.30;83.50;;;;;;6257564;28;20513;-78
2021/07/05 10:28:19;;;;;;;1.98;0.85;;;24.10;83.90;;;;;;6254645;28;20502;-78
2021/07/05 10:31:22;;;;;;;2.58;0.82;;;24.10;83.90;;;;;;6253877;28;20482;-78
2021/07/05 10:34:24;;;;;;;1.20;0.80;;;24.10;85.40;;;;;;6257571;28;20486;-79
2021/07/05 10:37:35;;;;;;;0.90;0.70;;;24.20;82.80;;;;;;6256104;28;20488;-79
2021/07/05 10:40:39;;;;;;;1.33;0.60;;;24.20;82.00;;;;;;6257415;28;20563;-78
2021/07/05 10:43:49;;;;;;;1.98;0.38;;;24.30;81.90;;;;;;6257234;28;20418;-77
2021/07/05 10:46:54;;;;;;;0.60;0.40;;;24.30;81.70;;;;;;6256129;28;20415;-79
2021/07/05 10:50:01;;;;;;;1.53;0.50;;;24.30;79.20;;;;;;6257095;28;20434;-79
2021/07/05 10:53:04;;;;;;;2.53;0.50;;;24.20;79.10;;;;;;6255098;28;20496;-79
2021/07/05 10:56:32;;;;;;;0.80;0.50;;;24.10;79.60;;;;;;6256967;28;20548;-76
2021/07/05 10:59:40;;;;;;;0.70;0.50;;;24.00;80.50;;;;;;6258251;28;20484;-78
2021/07/05 11:02:45;;;;;;;1.05;0.68;;;24.00;80.80;;;;;;6259178;28;20474;-77
2021/07/05 11:05:48;;;;;;;2.05;0.73;;;24.00;81.10;;;;;;6259812;28;20434;-78
2021/07/05 11:08:52;;;;;;;1.07;0.70;;;24.00;80.10;;;;;;6259357;28;20447;-79
2021/07/05 11:11:55;;;;;;;0.77;0.70;;;24.00;79.30;;;;;;6252042;28;20435;-78
2021/07/05 11:14:58;;;;;;;0.87;0.77;;;23.70;80.50;;;;;;6235001;28;20433;-78
2021/07/05 11:18:01;;;;;;;0.90;0.63;;;23.60;81.70;;;;;;6232529;28;20542;-79
2021/07/05 11:21:03;;;;;;;1.20;0.60;;;23.50;81.10;;;;;;6233779;28;20436;-78
2021/07/05 11:24:14;;;;;;;1.35;1.10;;;23.30;82.50;;;;;;6231511;28;20563;-77
2021/07/05 11:27:48;;;;;;;1.42;0.70;;;23.20;82.90;;;;;;6231616;28;20981;-78
2021/07/05 11:30:50;;;;;;;3.05;0.85;;;23.50;83.20;;;;;;6230378;28;20409;-77
2021/07/05 11:33:53;;;;;;;1.80;0.88;;;23.80;82.00;;;;;;6230622;28;20533;-78
2021/07/05 11:37:34;;;;;;;0.70;0.60;;;24.50;79.00;;;;;;6230029;28;20506;-76
2021/07/05 11:40:48;;;;;;;0.57;0.55;;;24.80;77.00;;;;;;6230337;28;20467;-77
2021/07/05 11:43:54;;;;;;;0.80;0.50;;;24.90;75.20;;;;;;6228459;28;20492;-77
2021/07/05 11:46:56;;;;;;;1.52;0.52;;;24.90;74.40;;;;;;6229201;28;20423;-77
2021/07/05 11:50:32;;;;;;;2.42;0.60;;;24.90;75.70;;;;;;6224833;28;20499;-77
2021/07/05 11:53:34;;;;;;;1.25;0.68;;;24.70;77.10;;;;;;6227216;28;20464;-78
2021/07/05 11:56:38;;;;;;;1.15;0.65;;;24.50;76.80;;;;;;6251447;28;20419;-76
2021/07/05 11:59:40;;;;;;;1.30;0.55;;;24.80;76.40;;;;;;6249905;28;20550;-77
2021/07/05 12:02:41;;;;;;;2.40;0.80;;;25.30;76.00;;;;;;6249218;28;20446;-77
2021/07/05 12:06:00;;;;;;;3.10;1.15;;;25.60;73.70;;;;;;6252960;28;20497;-77
2021/07/05 12:09:05;;;;;;;1.63;0.60;;;24.90;73.60;;;;;;6249643;28;20412;-77
2021/07/05 12:12:10;;;;;;;2.08;0.77;;;24.30;78.90;;;;;;6248428;28;20490;-76
2021/07/05 12:15:12;;;;;;;2.25;0.90;;;23.70;85.30;;;;;;6252511;28;20415;-78
2021/07/05 12:18:17;;;;;;;2.20;0.70;;;23.60;87.30;;;;;;6252213;28;20496;-78
2021/07/05 12:21:31;;;;;;;0.95;0.90;;;24.00;87.80;;;;;;6254410;28;20434;-77
2021/07/05 12:24:35;;;;;;;1.80;0.88;;;24.50;84.40;;;;;;6252969;28;20462;-79
2021/07/05 12:27:37;;;;;;;0.93;0.65;;;24.80;81.10;;;;;;6248216;28;20474;-77
2021/07/05 12:30:45;;;;;;;1.05;0.45;;;25.10;80.60;;;;;;6248434;28;20411;-77
2021/07/05 12:33:48;;;;;;;2.50;0.43;;;26.20;74.50;;;;;;6251499;28;20899;-77
2021/07/05 12:36:50;;;;;;;;;;;26.20;73.70;;;;;;6274917;28;20084;-77
2021/07/05 12:39:59;;;;;;;1.83;0.52;;;26.30;73.90;;;;;;6277732;28;19952;-77
2021/07/05 12:43:04;;;;;;;0.60;0.40;;;26.30;72.70;;;;;;6279038;28;20030;-76
2021/07/05 12:46:05;;;;;;;;;;;26.30;73.70;;;;;;6280871;28;20030;-76
2021/07/05 12:49:24;;;;;;;;;;;26.10;73.00;;;;;;6281154;28;19928;-75
2021/07/05 12:52:27;;;;;;;;;;;25.50;74.10;;;;;;6280728;28;19932;-75
2021/07/05 12:55:29;;;;;;;5.55;0.60;;;25.20;75.00;;;;;;6279778;28;19964;-76
2021/07/05 12:58:42;;;;;;;0.82;0.75;;;25.10;75.20;;;;;;6278502;28;20022;-75
2021/07/05 13:01:44;;;;;;;0.57;0.50;;;24.90;75.30;;;;;;6279603;28;20128;-76
2021/07/05 13:04:46;;;;;;;0.63;0.40;;;24.70;76.40;;;;;;6268147;28;20097;-77
2021/07/05 13:07:56;;;;;;;0.30;0.30;;;24.70;75.20;;;;;;6249460;28;20061;-77
2021/07/05 13:11:08;;;;;;;0.80;0.70;;;25.10;75.70;;;;;;6248895;28;20124;-77
2021/07/05 13:14:12;;;;;;;0.90;0.50;;;25.40;75.60;;;;;;6234533;28;20053;-77
2021/07/05 13:17:17;;;;;;;1.95;0.47;;;25.60;73.80;;;;;;6224087;28;20100;-76
2021/07/05 13:20:23;;;;;;;0.47;0.47;;;25.60;72.70;;;;;;6223968;28;20519;-77
2021/07/05 13:23:38;;;;;;;1.38;0.40;;;25.50;73.50;;;;;;6223847;28;20048;-77
2021/07/05 13:26:40;;;;;;;2.42;0.60;;;25.60;73.30;;;;;;6223388;28;20126;-77
2021/07/05 13:29:43;;;;;;;0.40;0.38;;;25.90;71.60;;;;;;6224096;28;20458;-76
2021/07/05 13:32:56;;;;;;;0.77;0.38;;;26.00;70.80;;;;;;6222743;28;20581;-77
2021/07/05 13:35:59;;;;;;;1.33;0.40;;;26.00;71.70;;;;;;6222790;28;20570;-77
2021/07/05 13:39:11;;;;;;;7.25;1.15;;;26.10;71.80;;;;;;6222953;28;20466;-76
2021/07/05 13:42:15;;;;;;;0.75;0.68;;;26.20;71.40;;;;;;6223314;28;20042;-75
2021/07/05 13:45:19;;;;;;;0.93;0.40;;;26.20;69.40;;;;;;6223403;28;20089;-76
2021/07/05 13:48:20;;;;;;;2.70;0.68;;;26.10;69.20;;;;;;6222088;28;20397;-75
2021/07/05 13:51:22;;;;;;;1.63;0.60;;;26.00;70.60;;;;;;6222715;28;20069;-76
2021/07/05 13:54:29;;;;;;;0.75;0.60;;;26.30;71.00;;;;;;6229441;28;20124;-75
2021/07/05 13:57:31;;;;;;;;;;;26.40;68.40;;;;;;6246517;28;20064;-76
2021/07/05 14:00:36;;;;;;;;;;;26.30;67.90;;;;;;6247017;28;19927;-76
2021/07/05 14:03:37;;;;;;;;;;;25.80;68.40;;;;;;6246948;28;19921;-75
2021/07/05 14:06:39;;;;;;;;;;;25.30;70.00;;;;;;6246890;28;19920;-76
2021/07/05 14:09:42;;;;;;;;;;;24.70;71.70;;;;;;6252981;28;19921;-77
2021/07/05 14:12:44;;;;;;;;;;;24.10;74.80;;;;;;6246761;28;19936;-79
2021/07/05 14:15:46;;;;;;;;;;;23.60;76.90;;;;;;6223508;28;20004;-75
2021/07/05 14:18:47;;;;;;;;;;;23.70;77.30;;;;;;6222215;28;19921;-76
2021/07/05 14:21:49;;;;;;;;;;;23.80;77.10;;;;;;6224973;28;20035;-75
2021/07/05 14:24:52;;;;;;;;;;;24.00;77.50;;;;;;6225039;28;20007;-76
2021/07/05 14:27:54;;;;;;;;;;;24.10;77.10;;;;;;6223495;28;20016;-76
2021/07/05 14:30:56;;;;;;;;;;;24.10;76.90;;;;;;6224114;28;20464;-75
2021/07/05 14:33:58;;;;;;;;;;;24.00;76.70;;;;;;6224292;28;19927;-76
2021/07/05 14:36:59;;;;;;;;;;;24.10;77.80;;;;;;6228921;28;20418;-74
2021/07/05 14:40:03;;;;;;;;;;;24.40;77.40;;;;;;6227787;28;19944;-74
2021/07/05 14:43:05;;;;;;;;;;;24.50;76.90;;;;;;6228308;28;20386;-74
2021/07/05 14:46:06;;;;;;;;;;;24.30;77.20;;;;;;6227862;28;19968;-75
2021/07/05 14:49:08;;;;;;;;;;;24.50;77.20;;;;;;6228326;28;20038;-75
2021/07/05 14:52:09;;;;;;;;;;;24.70;77.20;;;;;;6226847;28;20437;-76
2021/07/05 14:55:14;;;;;;;;;;;25.10;75.90;;;;;;6232979;28;19921;-77
2021/07/05 14:58:15;;;;;;;;;;;25.20;75.20;;;;;;6232215;28;19921;-79
2021/07/05 15:01:17;;;;;;;;;;;25.40;75.00;;;;;;6210418;28;19929;-77
2021/07/05 15:04:19;;;;;;;;;;;25.40;71.90;;;;;;6225478;28;19968;-76
2021/07/05 15:07:21;;;;;;;;;;;25.40;71.50;;;;;;6227406;28;20059;-76
2021/07/05 15:10:25;;;;;;;;;;;25.40;71.40;;;;;;6222034;28;19928;-75
2021/07/05 15:13:29;;;;;;;;;;;25.40;70.50;;;;;;6202549;28;19922;-75
2021/07/05 15:16:31;;;;;;;;;;;25.10;71.60;;;;;;6223044;28;20299;-75
2021/07/05 15:19:32;;;;;;;;;;;25.00;72.90;;;;;;6226222;28;19922;-76
2021/07/05 15:22:34;;;;;;;;;;;25.00;73.10;;;;;;6220438;28;19996;-77
2021/07/05 15:25:39;;;;;;;;;;;25.10;71.30;;;;;;6202133;28;19922;-77
2021/07/05 15:28:41;;;;;;;;;;;25.00;70.90;;;;;;6223761;28;19928;-77
2021/07/05 15:31:42;;;;;;;;;;;25.20;69.80;;;;;;6210433;28;20015;-78
2021/07/05 15:34:44;;;;;;;;;;;25.20;69.20;;;;;;6201813;28;19925;-77
2021/07/05 15:37:46;;;;;;;;;;;25.20;69.20;;;;;;6201837;28;19995;-77
2021/07/05 15:40:49;;;;;;;;;;;25.20;69.30;;;;;;6202234;28;20392;-77
2021/07/05 15:43:51;;;;;;;;;;;25.20;69.30;;;;;;6203825;28;19968;-77
2021/07/05 15:46:53;;;;;;;;;;;25.10;70.20;;;;;;6202130;28;20454;-78
2021/07/05 15:49:54;;;;;;;;;;;25.20;70.60;;;;;;6203932;28;19976;-79
2021/07/05 15:52:57;;;;;;;;;;;25.60;69.80;;;;;;6203580;28;20065;-78
2021/07/05 15:56:00;;;;;;;;;;;25.70;68.30;;;;;;6205820;28;20363;-78
2021/07/05 15:59:02;;;;;;;;;;;25.80;65.40;;;;;;6218930;28;19957;-77
2021/07/05 16:02:04;;;;;;;;;;;25.80;65.70;;;;;;6225719;28;19994;-78
2021/07/05 16:05:07;;;;;;;;;;;25.90;64.60;;;;;;6227505;28;19933;-78
2021/07/05 16:08:08;;;;;;;;;;;25.80;64.70;;;;;;6224943;28;19922;-77
2021/07/05 16:11:11;;;;;;;;;;;25.80;64.40;;;;;;6225399;28;20007;-77
2021/07/05 16:14:13;;;;;;;;;;;25.80;64.40;;;;;;6225440;28;20003;-77